Time;durP1;ratioP1;P1;durP2;ratioP2;P2;SDS_P1;SDS_P2;PMS_P1;PMS_P2;Temp;Humidity;BMP_temperature;BMP_pressure;BME280_temperature;BME280_humidity;BME280_pressure;Samples;Min_cycle;Max_cycle;Signal;HPM_P1;HPM_P2
2023/10/23 00:03:57;;;;;;;;;;;;;;;;;;10451309;28;19940;-76
2023/10/23 00:08:57;;;;;;;;;;;;;;;;;;10444456;28;20787;-76
2023/10/23 00:13:57;;;;;;;;;;;;;;;;;;10409747;28;19932;-77
2023/10/23 00:18:58;;;;;;;;;;;;;;;;;;10419453;28;19928;-76
2023/10/23 00:23:58;;;;;;;;;;;;;;;;;;10412997;28;20020;-77
2023/10/23 00:29:00;;;;;;;;;;;;;;;;;;10419769;28;19948;-77
2023/10/23 00:34:00;;;;;;;;;;;;;;;;;;10423839;28;19921;-76
2023/10/23 00:39:00;;;;;;;;;;;;;;;;;;10424878;28;19917;-75
2023/10/23 00:44:01;;;;;;;;;;;;;;;;;;10421254;28;20741;-81
2023/10/23 00:49:01;;;;;;;;;;;;;;;;;;10416798;28;19928;-75
2023/10/23 00:54:01;;;;;;;;;;;;;;;;;;10422085;28;20344;-77
2023/10/23 00:59:01;;;;;;;;;;;;;;;;;;10416904;28;19936;-76
2023/10/23 01:04:04;;;;;;;;;;;;;;;;;;10408460;28;20416;-76
2023/10/23 01:09:04;;;;;;;;;;;;;;;;;;10409552;28;20377;-77
2023/10/23 01:14:04;;;;;;;;;;;;;;;;;;10426828;28;19929;-76
2023/10/23 01:19:04;;;;;;;;;;;;;;;;;;10407466;28;19925;-77
2023/10/23 01:24:05;;;;;;;;;;;;;;;;;;10417600;28;19932;-76
2023/10/23 01:29:05;;;;;;;;;;;;;;;;;;10423539;28;19925;-77
2023/10/23 01:34:05;;;;;;;;;;;;;;;;;;10424401;28;19925;-77
2023/10/23 01:39:05;;;;;;;;;;;;;;;;;;10416389;28;19925;-78
2023/10/23 01:44:06;;;;;;;;;;;;;;;;;;10409702;28;20452;-77
2023/10/23 01:49:06;;;;;;;;;;;;;;;;;;10430067;28;19931;-77
2023/10/23 01:54:06;;;;;;;;;;;;;;;;;;10403218;28;19989;-75
2023/10/23 01:59:07;;;;;;;;;;;;;;;;;;10407599;28;21362;-75
2023/10/23 02:04:07;;;;;;;;;;;;;;;;;;10421738;28;19933;-77
2023/10/23 02:09:08;;;;;;;;;;;;;;;;;;10411031;28;19951;-77
2023/10/23 02:14:08;;;;;;;;;;;;;;;;;;10431753;28;19932;-76
2023/10/23 02:19:11;;;;;;;;;;;;;;;;;;10422328;28;20043;-76
2023/10/23 02:24:12;;;;;;;;;;;;;;;;;;10437808;28;19929;-75
2023/10/23 02:29:12;;;;;;;;;;;;;;;;;;10436611;28;19921;-77
2023/10/23 02:34:12;;;;;;;;;;;;;;;;;;10434665;28;19921;-75
2023/10/23 02:39:12;;;;;;;;;;;;;;;;;;10407269;28;19935;-79
2023/10/23 02:44:14;;;;;;;;;;;;;;;;;;10434462;28;19935;-78
2023/10/23 02:49:14;;;;;;;;;;;;;;;;;;10412160;28;20636;-79
2023/10/23 02:54:14;;;;;;;;;;;;;;;;;;10427823;28;20002;-77
2023/10/23 02:59:14;;;;;;;;;;;;;;;;;;10434070;28;19924;-79
2023/10/23 03:04:15;;;;;;;;;;;;;;;;;;10431940;28;19935;-80
2023/10/23 03:09:15;;;;;;;;;;;;;;;;;;10400655;28;19916;-78
2023/10/23 03:14:15;;;;;;;;;;;;;;;;;;10418454;28;19932;-78
2023/10/23 03:19:15;;;;;;;;;;;;;;;;;;10412390;28;19932;-77
2023/10/23 03:24:16;;;;;;;;;;;;;;;;;;10439026;28;20388;-80
2023/10/23 03:29:16;;;;;;;;;;;;;;;;;;10437876;28;20023;-77
2023/10/23 03:34:18;;;;;;;;;;;;;;;;;;10434986;28;19920;-79
2023/10/23 03:39:18;;;;;;;;;;;;;;;;;;10438558;28;20368;-77
2023/10/23 03:44:18;;;;;;;;;;;;;;;;;;10439007;28;19936;-76
2023/10/23 03:49:19;;;;;;;;;;;;;;;;;;10417315;28;19924;-75
2023/10/23 03:54:19;;;;;;;;;;;;;;;;;;10431753;28;20419;-74
2023/10/23 03:59:19;;;;;;;;;;;;;;;;;;10428520;28;19922;-77
2023/10/23 04:04:19;;;;;;;;;;;;;;;;;;10436572;28;19928;-74
2023/10/23 04:09:20;;;;;;;;;;;;;;;;;;10435925;28;19927;-76
2023/10/23 04:14:20;;;;;;;;;;;;;;;;;;10404934;28;19925;-73
2023/10/23 04:19:20;;;;;;;;;;;;;;;;;;10391116;28;19921;-74
2023/10/23 04:24:20;;;;;;;;;;;;;;;;;;10386698;28;20439;-77
2023/10/23 04:29:20;;;;;;;;;;;;;;;;;;10392404;28;19921;-77
2023/10/23 04:34:21;;;;;;;;;;;;;;;;;;10389080;28;19921;-78
2023/10/23 04:39:21;;;;;;;;;;;;;;;;;;10383394;28;20473;-79
2023/10/23 04:44:22;;;;;;;;;;;;;;;;;;10387421;28;20716;-76
2023/10/23 04:49:22;;;;;;;;;;;;;;;;;;10389221;28;20016;-76
2023/10/23 04:54:23;;;;;;;;;;;;;;;;;;10382049;28;19929;-76
2023/10/23 04:59:23;;;;;;;;;;;;;;;;;;10384600;28;19987;-76
2023/10/23 05:04:23;;;;;;;;;;;;;;;;;;10386347;28;20004;-74
2023/10/23 05:09:23;;;;;;;;;;;;;;;;;;10370550;28;19932;-78
2023/10/23 05:14:23;;;;;;;;;;;;;;;;;;10392201;28;19925;-78
2023/10/23 05:19:24;;;;;;;;;;;;;;;;;;10397618;28;19921;-77
2023/10/23 05:24:24;;;;;;;;;;;;;;;;;;10378428;28;20297;-77
2023/10/23 05:29:25;;;;;;;;;;;;;;;;;;10371890;28;19917;-76
2023/10/23 05:34:25;;;;;;;;;;;;;;;;;;10393198;28;19928;-77
2023/10/23 05:39:25;;;;;;;;;;;;;;;;;;10393523;28;19917;-77
2023/10/23 05:44:25;;;;;;;;;;;;;;;;;;10392970;28;19925;-70
2023/10/23 05:49:26;;;;;;;;;;;;;;;;;;10388304;28;20344;-71
2023/10/23 05:54:26;;;;;;;;;;;;;;;;;;10388681;28;20551;-72
2023/10/23 05:59:26;;;;;;;;;;;;;;;;;;10383177;28;19983;-71
2023/10/23 06:04:26;;;;;;;;;;;;;;;;;;10391878;28;19980;-74
2023/10/23 06:09:28;;;;;;;;;;;;;;;;;;10405532;28;20325;-78
2023/10/23 06:14:28;;;;;;;;;;;;;;;;;;10400519;28;19925;-80
2023/10/23 06:19:30;;;;;;;;;;;;;;;;;;10403066;28;20372;-79
2023/10/23 06:24:31;;;;;;;;;;;;;;;;;;10398330;28;19928;-79
2023/10/23 06:29:31;;;;;;;;;;;;;;;;;;10399112;28;19921;-79
2023/10/23 06:34:31;;;;;;;;;;;;;;;;;;10391454;28;19925;-76
2023/10/23 06:39:31;;;;;;;;;;;;;;;;;;10401607;28;19947;-76
2023/10/23 06:44:32;;;;;;;;;;;;;;;;;;10394219;28;20408;-75
2023/10/23 06:49:32;;;;;;;;;;;;;;;;;;10398319;28;19922;-76
2023/10/23 06:54:32;;;;;;;;;;;;;;;;;;10393074;28;19921;-75
2023/10/23 06:59:32;;;;;;;;;;;;;;;;;;10393524;28;19921;-75
2023/10/23 07:04:32;;;;;;;;;;;;;;;;;;10395011;28;19936;-82
2023/10/23 07:09:33;;;;;;;;;;;;;;;;;;10393164;28;19974;-79
2023/10/23 07:14:33;;;;;;;;;;;;;;;;;;10421263;28;19970;-77
2023/10/23 07:19:33;;;;;;;;;;;;;;;;;;10437031;28;19928;-76
2023/10/23 07:24:33;;;;;;;;;;;;;;;;;;10432596;28;19933;-78
2023/10/23 07:29:33;;;;;;;;;;;;;;;;;;10432474;28;20611;-78
2023/10/23 07:34:34;;;;;;;;;;;;;;;;;;10435442;28;19925;-76
2023/10/23 07:39:34;;;;;;;;;;;;;;;;;;10435977;28;19925;-77
2023/10/23 07:44:34;;;;;;;;;;;;;;;;;;10424258;28;19978;-76
2023/10/23 07:49:34;;;;;;;;;;;;;;;;;;10421359;28;21333;-78
2023/10/23 07:54:35;;;;;;;;;;;;;;;;;;10413181;28;19932;-75
2023/10/23 07:59:35;;;;;;;;;;;;;;;;;;10418476;28;19928;-76
2023/10/23 08:04:35;;;;;;;;;;;;;;;;;;10426800;28;21023;-78
2023/10/23 08:09:35;;;;;;;;;;;;;;;;;;10431783;28;19932;-77
2023/10/23 08:14:35;;;;;;;;;;;;;;;;;;10408735;28;19925;-78
2023/10/23 08:19:36;;;;;;;;;;;;;;;;;;10382172;28;19925;-77
2023/10/23 08:24:36;;;;;;;;;;;;;;;;;;10391177;28;19948;-75
2023/10/23 08:29:36;;;;;;;;;;;;;;;;;;10373958;28;20543;-78
2023/10/23 08:34:36;;;;;;;;;;;;;;;;;;10385503;28;20589;-76
2023/10/23 08:39:37;;;;;;;;;;;;;;;;;;10389777;28;19929;-76
2023/10/23 08:44:37;;;;;;;;;;;;;;;;;;10388833;28;19991;-75
2023/10/23 08:49:37;;;;;;;;;;;;;;;;;;10396061;28;19925;-75
2023/10/23 08:54:38;;;;;;;;;;;;;;;;;;10392680;28;20945;-75
2023/10/23 08:59:41;;;;;;;;;;;;;;;;;;10389451;28;19949;-74
2023/10/23 09:04:42;;;;;;;;;;;;;;;;;;10392870;28;19968;-75
2023/10/23 09:09:42;;;;;;;;;;;;;;;;;;10390686;28;19943;-75
2023/10/23 09:14:42;;;;;;;;;;;;;;;;;;10393613;28;19925;-76
2023/10/23 09:19:43;;;;;;;;;;;;;;;;;;10395532;28;19921;-76
2023/10/23 09:24:45;;;;;;;;;;;;;;;;;;10387292;28;19991;-76
2023/10/23 09:29:45;;;;;;;;;;;;;;;;;;10387460;28;19925;-78
2023/10/23 09:34:45;;;;;;;;;;;;;;;;;;10388400;28;19925;-81
2023/10/23 09:39:45;;;;;;;;;;;;;;;;;;10383401;28;19936;-77
2023/10/23 09:44:46;;;;;;;;;;;;;;;;;;10397798;28;20027;-78
2023/10/23 09:49:46;;;;;;;;;;;;;;;;;;10397036;28;19956;-79
2023/10/23 09:54:46;;;;;;;;;;;;;;;;;;10387648;28;19921;-76
2023/10/23 09:59:47;;;;;;;;;;;;;;;;;;10389574;28;20014;-76
2023/10/23 10:04:47;;;;;;;;;;;;;;;;;;10389078;28;19933;-76
2023/10/23 10:09:47;;;;;;;;;;;;;;;;;;10392832;28;19922;-77
2023/10/23 10:14:47;;;;;;;;;;;;;;;;;;10398565;28;19975;-76
2023/10/23 10:19:48;;;;;;;;;;;;;;;;;;10376972;28;19954;-77
2023/10/23 10:24:48;;;;;;;;;;;;;;;;;;10376632;28;19940;-77
2023/10/23 10:29:48;;;;;;;;;;;;;;;;;;10385514;28;19921;-77
2023/10/23 10:34:48;;;;;;;;;;;;;;;;;;10383710;28;19956;-80
2023/10/23 10:39:52;;;;;;;;;;;;;;;;;;10366994;28;19944;-82
2023/10/23 10:44:52;;;;;;;;;;;;;;;;;;10378613;28;19935;-76
2023/10/23 10:49:52;;;;;;;;;;;;;;;;;;10366147;28;19982;-78
2023/10/23 10:54:53;;;;;;;;;;;;;;;;;;10384093;28;20405;-76
2023/10/23 10:59:53;;;;;;;;;;;;;;;;;;10384982;28;20356;-78
2023/10/23 11:04:54;;;;;;;;;;;;;;;;;;10382613;28;19936;-82
2023/10/23 11:09:54;;;;;;;;;;;;;;;;;;10387994;28;20443;-80
2023/10/23 11:14:54;;;;;;;;;;;;;;;;;;10394365;28;19921;-77
2023/10/23 11:19:55;;;;;;;;;;;;;;;;;;10400257;28;19920;-78
2023/10/23 11:24:55;;;;;;;;;;;;;;;;;;10396470;28;19963;-76
2023/10/23 11:29:55;;;;;;;;;;;;;;;;;;10392369;28;19921;-77
2023/10/23 11:34:56;;;;;;;;;;;;;;;;;;10394298;28;19921;-76
2023/10/23 11:39:56;;;;;;;;;;;;;;;;;;10392316;28;19957;-77
2023/10/23 11:44:57;;;;;;;;;;;;;;;;;;10388523;28;19939;-77
2023/10/23 11:49:57;;;;;;;;;;;;;;;;;;10388046;28;19925;-76
2023/10/23 11:54:57;;;;;;;;;;;;;;;;;;10388051;28;19925;-73
2023/10/23 11:59:57;;;;;;;;;;;;;;;;;;10386780;28;19932;-79
2023/10/23 12:04:57;;;;;;;;;;;;;;;;;;10394951;28;20275;-77
2023/10/23 12:09:58;;;;;;;;;;;;;;;;;;10395234;28;19928;-77
2023/10/23 12:14:59;;;;;;;;;;;;;;;;;;10393182;28;19921;-77
2023/10/23 12:19:59;;;;;;;;;;;;;;;;;;10375052;28;20026;-78
2023/10/23 12:24:59;;;;;;;;;;;;;;;;;;10384050;28;20339;-77
2023/10/23 12:30:00;;;;;;;;;;;;;;;;;;10384085;28;19978;-76
2023/10/23 12:35:03;;;;;;;;;;;;;;;;;;10380288;28;19922;-75
2023/10/23 12:40:08;;;;;;;;;;;;;;;;;;10382534;28;19921;-79
2023/10/23 12:45:08;;;;;;;;;;;;;;;;;;10380865;28;19937;-77
2023/10/23 12:50:09;;;;;;;;;;;;;;;;;;10378039;28;21019;-77
2023/10/23 12:55:09;;;;;;;;;;;;;;;;;;10374290;28;19925;-77
2023/10/23 13:00:09;;;;;;;;;;;;;;;;;;10379929;28;20351;-77
2023/10/23 13:05:09;;;;;;;;;;;;;;;;;;10380227;28;19998;-75
2023/10/23 13:10:09;;;;;;;;;;;;;;;;;;10390512;28;19925;-77
2023/10/23 13:15:10;;;;;;;;;;;;;;;;;;10396012;28;20323;-77
2023/10/23 13:20:10;;;;;;;;;;;;;;;;;;10394739;28;20595;-77
2023/10/23 13:25:10;;;;;;;;;;;;;;;;;;10396312;28;19929;-77
2023/10/23 13:30:10;;;;;;;;;;;;;;;;;;10398453;28;19971;-77
2023/10/23 13:35:14;;;;;;;;;;;;;;;;;;10382583;28;20046;-77
2023/10/23 13:40:15;;;;;;;;;;;;;;;;;;10392978;28;19971;-80
2023/10/23 13:45:15;;;;;;;;;;;;;;;;;;10392753;28;19929;-79
2023/10/23 13:50:15;;;;;;;;;;;;;;;;;;10392143;28;19921;-79
2023/10/23 13:55:16;;;;;;;;;;;;;;;;;;10400874;28;20326;-79
2023/10/23 14:00:16;;;;;;;;;;;;;;;;;;10402761;28;19921;-80
2023/10/23 14:05:16;;;;;;;;;;;;;;;;;;10397675;28;19976;-81
2023/10/23 14:10:16;;;;;;;;;;;;;;;;;;10406600;28;19928;-78
2023/10/23 14:15:17;;;;;;;;;;;;;;;;;;10407744;28;19951;-79
2023/10/23 14:20:17;;;;;;;;;;;;;;;;;;10400744;28;19933;-76
2023/10/23 14:25:17;;;;;;;;;;;;;;;;;;10392096;28;19929;-78
2023/10/23 14:30:17;;;;;;;;;;;;;;;;;;10413291;28;20685;-79
2023/10/23 14:35:19;;;;;;;;;;;;;;;;;;10403692;28;19925;-77
2023/10/23 14:40:19;;;;;;;;;;;;;;;;;;10401693;28;19947;-77
2023/10/23 14:45:19;;;;;;;;;;;;;;;;;;10419536;28;20408;-75
2023/10/23 14:50:20;;;;;;;;;;;;;;;;;;10411657;28;19922;-75
2023/10/23 14:55:20;;;;;;;;;;;;;;;;;;10390429;28;20020;-77
2023/10/23 15:00:20;;;;;;;;;;;;;;;;;;10404392;28;19924;-78
2023/10/23 15:05:20;;;;;;;;;;;;;;;;;;10401336;28;20377;-77
2023/10/23 15:10:20;;;;;;;;;;;;;;;;;;10393329;28;20032;-75
2023/10/23 15:15:22;;;;;;;;;;;;;;;;;;10421006;28;20439;-75
2023/10/23 15:20:24;;;;;;;;;;;;;;;;;;10428300;28;19933;-76
2023/10/23 15:25:25;;;;;;;;;;;;;;;;;;10409405;28;19929;-77
2023/10/23 15:30:25;;;;;;;;;;;;;;;;;;10424782;28;20321;-75
2023/10/23 15:35:25;;;;;;;;;;;;;;;;;;10417685;28;19924;-76
2023/10/23 15:40:25;;;;;;;;;;;;;;;;;;10418950;28;19921;-78
2023/10/23 15:45:26;;;;;;;;;;;;;;;;;;10389546;28;19929;-78
2023/10/23 15:50:26;;;;;;;;;;;;;;;;;;10429874;28;19920;-74
2023/10/23 15:55:26;;;;;;;;;;;;;;;;;;10402263;28;20729;-76
2023/10/23 16:00:27;;;;;;;;;;;;;;;;;;10419733;28;20377;-77
2023/10/23 16:05:27;;;;;;;;;;;;;;;;;;10402988;28;20475;-78
2023/10/23 16:10:27;;;;;;;;;;;;;;;;;;10429626;28;19925;-76
2023/10/23 16:15:27;;;;;;;;;;;;;;;;;;10412482;28;19932;-76
2023/10/23 16:20:28;;;;;;;;;;;;;;;;;;10433124;28;19916;-79
2023/10/23 16:25:28;;;;;;;;;;;;;;;;;;10425400;28;20308;-77
2023/10/23 16:30:28;;;;;;;;;;;;;;;;;;10412128;28;19921;-76
2023/10/23 16:35:29;;;;;;;;;;;;;;;;;;10434608;28;20657;-76
2023/10/23 16:40:32;;;;;;;;;;;;;;;;;;10427494;28;19921;-75
2023/10/23 16:45:32;;;;;;;;;;;;;;;;;;10437097;28;19940;-76
2023/10/23 16:50:32;;;;;;;;;;;;;;;;;;10431459;28;19927;-75
2023/10/23 16:55:33;;;;;;;;;;;;;;;;;;10430963;28;19920;-75
2023/10/23 17:00:33;;;;;;;;;;;;;;;;;;10435251;28;19935;-78
2023/10/23 17:05:34;;;;;;;;;;;;;;;;;;10432371;28;19932;-76
2023/10/23 17:10:34;;;;;;;;;;;;;;;;;;10430601;28;19925;-76
2023/10/23 17:15:34;;;;;;;;;;;;;;;;;;10398470;28;20783;-77
2023/10/23 17:20:34;;;;;;;;;;;;;;;;;;10413913;28;20343;-75
2023/10/23 17:25:35;;;;;;;;;;;;;;;;;;10398242;28;19937;-75
2023/10/23 17:30:36;;;;;;;;;;;;;;;;;;10420953;28;19925;-76
2023/10/23 17:35:38;;;;;;;;;;;;;;;;;;10408359;28;19925;-77
2023/10/23 17:40:38;;;;;;;;;;;;;;;;;;10395937;28;20795;-75
2023/10/23 17:45:38;;;;;;;;;;;;;;;;;;10417582;28;19940;-75
2023/10/23 17:50:38;;;;;;;;;;;;;;;;;;10413677;28;20040;-76
2023/10/23 17:55:39;;;;;;;;;;;;;;;;;;10425178;28;19931;-76
2023/10/23 18:00:39;;;;;;;;;;;;;;;;;;10401263;28;19921;-76
2023/10/23 18:05:40;;;;;;;;;;;;;;;;;;10429823;28;19928;-74
2023/10/23 18:10:40;;;;;;;;;;;;;;;;;;10438620;28;20437;-75
2023/10/23 18:15:40;;;;;;;;;;;;;;;;;;10423161;28;19936;-77
2023/10/23 18:20:40;;;;;;;;;;;;;;;;;;10383714;28;20305;-77
2023/10/23 18:25:41;;;;;;;;;;;;;;;;;;10408189;28;19941;-75
2023/10/23 18:30:41;;;;;;;;;;;;;;;;;;10388420;28;20308;-79
2023/10/23 18:35:41;;;;;;;;;;;;;;;;;;10386165;28;20611;-78
2023/10/23 18:40:42;;;;;;;;;;;;;;;;;;10402519;28;20386;-79
2023/10/23 18:45:43;;;;;;;;;;;;;;;;;;10414147;28;20479;-75
2023/10/23 18:50:43;;;;;;;;;;;;;;;;;;10372316;28;19924;-78
2023/10/23 18:55:43;;;;;;;;;;;;;;;;;;10415053;28;19974;-78
2023/10/23 19:00:44;;;;;;;;;;;;;;;;;;10428570;28;20034;-78
2023/10/23 19:05:44;;;;;;;;;;;;;;;;;;10396022;28;19929;-78
2023/10/23 19:10:45;;;;;;;;;;;;;;;;;;10434296;28;19970;-79
2023/10/23 19:15:45;;;;;;;;;;;;;;;;;;10445281;28;19952;-83
2023/10/23 19:20:45;;;;;;;;;;;;;;;;;;10421353;28;19921;-82
2023/10/23 19:25:45;;;;;;;;;;;;;;;;;;10446267;28;19928;-79
2023/10/23 19:30:46;;;;;;;;;;;;;;;;;;10427737;28;19921;-81
2023/10/23 19:35:46;;;;;;;;;;;;;;;;;;10413901;28;20359;-77
2023/10/23 19:40:46;;;;;;;;;;;;;;;;;;10412615;28;19943;-81
2023/10/23 19:45:46;;;;;;;;;;;;;;;;;;10386827;28;19929;-77
2023/10/23 19:50:47;;;;;;;;;;;;;;;;;;10402975;28;19937;-79
2023/10/23 19:55:47;;;;;;;;;;;;;;;;;;10409246;28;19917;-79
2023/10/23 20:00:47;;;;;;;;;;;;;;;;;;10422325;28;19925;-78
2023/10/23 20:05:52;;;;;;;;;;;;;;;;;;10424551;28;20283;-80
2023/10/23 20:10:52;;;;;;;;;;;;;;;;;;10435005;28;19943;-76
2023/10/23 20:15:54;;;;;;;;;;;;;;;;;;10434035;28;20386;-76
2023/10/23 20:20:55;;;;;;;;;;;;;;;;;;10427241;28;19924;-75
2023/10/23 20:25:59;;;;;;;;;;;;;;;;;;10418588;28;20027;-74
2023/10/23 20:30:59;;;;;;;;;;;;;;;;;;10420841;28;19978;-75
2023/10/23 20:35:59;;;;;;;;;;;;;;;;;;10420725;28;19971;-76
2023/10/23 20:41:01;;;;;;;;;;;;;;;;;;10399860;28;19948;-74
2023/10/23 20:46:03;;;;;;;;;;;;;;;;;;10396383;28;20449;-78
2023/10/23 20:51:03;;;;;;;;;;;;;;;;;;10404498;28;19936;-78
2023/10/23 20:56:04;;;;;;;;;;;;;;;;;;10398352;28;20010;-76
2023/10/23 21:01:04;;;;;;;;;;;;;;;;;;10413537;28;19932;-75
2023/10/23 21:06:04;;;;;;;;;;;;;;;;;;10429903;28;19924;-77
2023/10/23 21:11:08;;;;;;;;;;;;;;;;;;10412214;28;19921;-75
2023/10/23 21:16:08;;;;;;;;;;;;;;;;;;10426487;28;19925;-75
2023/10/23 21:21:08;;;;;;;;;;;;;;;;;;10425604;28;19932;-74
2023/10/23 21:26:08;;;;;;;;;;;;;;;;;;10400292;28;20643;-76
2023/10/23 21:31:09;;;;;;;;;;;;;;;;;;10411570;28;19924;-74
2023/10/23 21:36:09;;;;;;;;;;;;;;;;;;10430524;28;19924;-77
2023/10/23 21:41:09;;;;;;;;;;;;;;;;;;10418935;28;20300;-75
2023/10/23 21:46:09;;;;;;;;;;;;;;;;;;10437989;28;19933;-75
2023/10/23 21:51:09;;;;;;;;;;;;;;;;;;10417706;28;19932;-76
2023/10/23 21:56:10;;;;;;;;;;;;;;;;;;10414242;28;19924;-75
2023/10/23 22:01:10;;;;;;;;;;;;;;;;;;10435308;28;19928;-75
2023/10/23 22:06:10;;;;;;;;;;;;;;;;;;10440661;28;20396;-74
2023/10/23 22:11:10;;;;;;;;;;;;;;;;;;10420654;28;20037;-78
2023/10/23 22:16:11;;;;;;;;;;;;;;;;;;10408905;28;19929;-77
2023/10/23 22:21:11;;;;;;;;;;;;;;;;;;10441613;28;20167;-74
2023/10/23 22:26:12;;;;;;;;;;;;;;;;;;10423899;28;20004;-77
2023/10/23 22:31:12;;;;;;;;;;;;;;;;;;10441944;28;19935;-77
2023/10/23 22:36:12;;;;;;;;;;;;;;;;;;10414509;28;20488;-75
2023/10/23 22:41:12;;;;;;;;;;;;;;;;;;10425759;28;19928;-74
2023/10/23 22:46:12;;;;;;;;;;;;;;;;;;10423072;28;19928;-73
2023/10/23 22:51:13;;;;;;;;;;;;;;;;;;10424896;28;20420;-74
2023/10/23 22:56:13;;;;;;;;;;;;;;;;;;10412835;28;19992;-75
2023/10/23 23:01:13;;;;;;;;;;;;;;;;;;10407166;28;19917;-75
2023/10/23 23:06:13;;;;;;;;;;;;;;;;;;10434709;28;21789;-80
2023/10/23 23:11:14;;;;;;;;;;;;;;;;;;10417404;28;19924;-78
2023/10/23 23:16:14;;;;;;;;;;;;;;;;;;10433242;28;19925;-76
2023/10/23 23:21:14;;;;;;;;;;;;;;;;;;10430571;28;19920;-75
2023/10/23 23:26:14;;;;;;;;;;;;;;;;;;10417474;28;19933;-75
2023/10/23 23:31:15;;;;;;;;;;;;;;;;;;10401476;28;19921;-75
2023/10/23 23:36:15;;;;;;;;;;;;;;;;;;10419128;28;19917;-78
2023/10/23 23:41:15;;;;;;;;;;;;;;;;;;10404248;28;19923;-76
2023/10/23 23:46:16;;;;;;;;;;;;;;;;;;10419037;28;19936;-73
2023/10/23 23:51:16;;;;;;;;;;;;;;;;;;10415460;28;20418;-77
2023/10/23 23:56:17;;;;;;;;;;;;;;;;;;10395538;28;19932;-76
